createdAt,value
2019-04-22T00:02:13.819Z,9.63
2019-04-22T00:04:56.288Z,13.95
2019-04-22T00:07:43.256Z,12.80
2019-04-22T00:10:16.228Z,12.78
2019-04-22T00:12:48.627Z,12.18
2019-04-22T00:15:10.105Z,12.88
2019-04-22T00:17:55.161Z,10.13
2019-04-22T00:20:14.452Z,11.53
2019-04-22T00:22:44.354Z,11.57
2019-04-22T00:25:26.645Z,9.75
2019-04-22T00:27:59.096Z,12.95
2019-04-22T00:30:22.526Z,13.25
2019-04-22T00:33:00.697Z,13.98
2019-04-22T00:35:27.545Z,11.25
2019-04-22T00:38:09.245Z,10.25
2019-04-22T00:40:34.126Z,10.25
2019-04-22T00:43:05.035Z,8.80
2019-04-22T00:45:40.179Z,11.08
2019-04-22T00:48:09.270Z,11.15
2019-04-22T00:50:37.467Z,10.75
2019-04-22T00:53:11.628Z,11.57
2019-04-22T00:56:00.647Z,12.50
2019-04-22T00:58:30.773Z,10.55
2019-04-22T01:01:01.874Z,10.13
2019-04-22T01:03:34.257Z,10.53
2019-04-22T01:06:02.945Z,15.98
2019-04-22T01:08:43.215Z,13.45
2019-04-22T01:11:11.284Z,12.40
2019-04-22T01:13:42.085Z,12.10
2019-04-22T01:16:13.995Z,11.40
2019-04-22T01:18:46.197Z,15.75
2019-04-22T01:23:40.733Z,10.48
2019-04-22T01:26:13.966Z,12.50
2019-04-22T01:28:39.893Z,11.53
2019-04-22T01:31:04.701Z,12.58
2019-04-22T01:33:36.624Z,14.05
2019-04-22T01:36:22.886Z,13.25
2019-04-22T01:38:58.451Z,12.07
2019-04-22T01:41:37.566Z,12.98
2019-04-22T01:44:10.556Z,11.88
2019-04-22T01:46:31.805Z,12.18
2019-04-22T01:48:59.808Z,12.13
2019-04-22T01:51:47.157Z,12.20
2019-04-22T01:58:59.241Z,10.70
2019-04-22T02:01:47.699Z,10.45
2019-04-22T02:04:11.407Z,13.40
2019-04-22T02:06:43.092Z,11.63
2019-04-22T02:09:17.745Z,10.58
2019-04-22T02:11:47.008Z,13.00
2019-04-22T02:14:20.676Z,11.88
2019-04-22T02:16:41.299Z,11.50
2019-04-22T02:19:22.886Z,10.85
2019-04-22T02:21:48.563Z,11.57
2019-04-22T02:24:21.429Z,10.85
2019-04-22T02:26:49.906Z,8.98
2019-04-22T02:29:21.934Z,9.83
2019-04-22T02:31:59.497Z,10.50
2019-04-22T02:36:56.275Z,13.58
2019-04-22T02:39:24.400Z,9.25
2019-04-22T02:42:09.425Z,12.63
2019-04-22T02:44:46.719Z,12.98
2019-04-22T02:52:10.009Z,12.68
2019-04-22T02:55:00.312Z,14.70
2019-04-22T02:57:19.357Z,13.13
2019-04-22T02:59:39.829Z,9.20
2019-04-22T03:02:12.205Z,12.73
2019-04-22T03:04:43.773Z,7.75
2019-04-22T03:07:09.100Z,12.37
2019-04-22T03:09:57.780Z,10.10
2019-04-22T03:12:21.554Z,11.57
2019-04-22T03:17:18.678Z,8.68
2019-04-22T03:19:58.780Z,7.17
2019-04-22T03:25:06.151Z,9.30
2019-04-22T03:27:27.704Z,9.25
2019-04-22T03:37:52.953Z,9.63
2019-04-22T03:40:25.193Z,6.78
2019-04-22T03:48:04.381Z,6.92
2019-04-22T03:50:25.637Z,11.90
2019-04-22T03:53:14.868Z,7.90
2019-04-22T03:55:38.442Z,8.48
2019-04-22T04:03:09.807Z,7.92
2019-04-22T04:05:47.879Z,5.85
2019-04-22T04:08:14.847Z,9.18
2019-04-22T04:13:20.554Z,6.03
2019-04-22T04:15:34.261Z,8.05
2019-04-22T04:18:11.424Z,5.92
2019-04-22T04:21:09.266Z,11.25
2019-04-22T04:23:31.422Z,11.40
2019-04-22T04:25:48.416Z,8.20
2019-04-22T04:30:48.598Z,11.55
2019-04-22T04:33:22.987Z,11.90
2019-04-22T04:35:54.571Z,5.80
2019-04-22T04:38:21.110Z,6.78
2019-04-22T04:43:35.043Z,10.53
2019-04-22T04:48:47.120Z,13.75
2019-04-22T04:53:28.800Z,8.03
2019-04-22T04:56:11.460Z,13.22
2019-04-22T04:58:47.007Z,10.28
2019-04-22T05:01:20.997Z,9.25
2019-04-22T05:06:13.138Z,10.60
2019-04-22T05:11:16.781Z,8.70
2019-04-22T05:16:27.031Z,8.25
2019-04-22T05:23:45.055Z,11.40
2019-04-22T05:26:20.520Z,7.25
2019-04-22T05:28:52.140Z,8.88
2019-04-22T05:33:51.055Z,9.20
2019-04-22T05:36:26.382Z,9.50
2019-04-22T05:38:53.486Z,7.80
2019-04-22T05:41:26.626Z,8.75
2019-04-22T05:43:58.551Z,9.50
2019-04-22T05:46:26.576Z,8.80
2019-04-22T05:49:13.233Z,7.85
2019-04-22T05:51:32.549Z,9.30
2019-04-22T05:54:02.814Z,7.37
2019-04-22T05:56:33.892Z,10.78
2019-04-22T06:01:45.648Z,9.38
2019-04-22T06:04:05.380Z,10.58
2019-04-22T06:06:35.373Z,9.35
2019-04-22T06:09:12.623Z,6.08
2019-04-22T06:11:46.740Z,6.83
2019-04-22T06:14:07.640Z,5.72
2019-04-22T06:16:45.721Z,7.40
2019-04-22T06:19:21.594Z,9.33
2019-04-22T06:21:50.202Z,8.10
2019-04-22T06:24:26.416Z,9.70
2019-04-22T06:29:20.984Z,12.07
2019-04-22T06:32:12.798Z,7.85
2019-04-22T06:34:26.550Z,6.05
2019-04-22T06:37:05.671Z,6.70
2019-04-22T06:42:01.012Z,6.15
2019-04-22T06:44:29.617Z,5.10
2019-04-22T06:47:11.809Z,5.10
2019-04-22T06:49:38.363Z,4.42
2019-04-22T06:52:12.893Z,6.45
2019-04-22T06:57:06.075Z,5.75
2019-04-22T06:59:37.696Z,5.80
2019-04-22T07:02:12.371Z,6.85
2019-04-22T07:04:41.868Z,5.87
2019-04-22T07:07:12.218Z,4.45
2019-04-22T07:12:21.157Z,5.67
2019-04-22T07:14:48.675Z,6.85
2019-04-22T07:17:14.938Z,7.40
2019-04-22T07:19:42.229Z,6.53
2019-04-22T07:24:55.289Z,4.67
2019-04-22T07:27:22.140Z,4.78
2019-04-22T07:32:49.741Z,8.13
2019-04-22T07:35:01.116Z,4.42
2019-04-22T07:37:36.812Z,8.30
2019-04-22T07:39:56.909Z,4.47
2019-04-22T07:42:34.046Z,11.40
2019-04-22T07:45:05.041Z,6.03
2019-04-22T07:47:52.442Z,5.90
2019-04-22T07:50:37.829Z,7.62
2019-04-22T07:52:51.817Z,4.45
2019-04-22T07:55:17.833Z,3.45
2019-04-22T07:58:00.658Z,4.17
2019-04-22T08:00:29.728Z,4.67
2019-04-22T08:03:07.712Z,4.17
2019-04-22T08:08:14.702Z,4.15
2019-04-22T08:10:43.311Z,5.05
2019-04-22T08:13:11.359Z,7.95
2019-04-22T08:18:28.955Z,4.40
2019-04-22T08:21:03.167Z,5.72
2019-04-22T08:23:16.627Z,4.33
2019-04-22T08:25:47.438Z,4.65
2019-04-22T08:28:24.039Z,3.87
2019-04-22T08:33:21.708Z,5.47
2019-04-22T08:36:06.831Z,5.17
2019-04-22T08:38:33.645Z,7.65
2019-04-22T08:41:24.598Z,4.95
2019-04-22T08:43:56.522Z,5.28
2019-04-22T08:46:23.379Z,7.17
2019-04-22T08:48:51.671Z,3.87
2019-04-22T08:51:22.252Z,4.10
2019-04-22T08:53:59.808Z,5.42
2019-04-22T08:56:29.560Z,3.83
2019-04-22T08:58:59.991Z,4.85
2019-04-22T09:03:58.023Z,8.03
2019-04-22T09:09:02.111Z,5.00
2019-04-22T09:11:38.431Z,5.65
2019-04-22T09:14:02.959Z,10.28
2019-04-22T09:18:59.788Z,12.60
2019-04-22T09:21:36.182Z,6.22
2019-04-22T09:24:05.359Z,6.47
2019-04-22T09:26:36.063Z,7.80
2019-04-22T09:31:37.248Z,10.28
2019-04-22T09:34:06.476Z,5.50
2019-04-22T09:36:42.130Z,9.38
2019-04-22T09:39:19.512Z,11.33
2019-04-22T09:41:48.360Z,7.37
2019-04-22T09:44:08.135Z,4.53
2019-04-22T09:46:47.189Z,22.48
2019-04-22T09:49:19.619Z,8.60
2019-04-22T09:51:46.184Z,10.82
2019-04-22T09:54:21.658Z,13.88
2019-04-22T09:56:49.031Z,6.22
2019-04-22T09:59:20.551Z,11.15
2019-04-22T10:02:07.786Z,8.68
2019-04-22T10:04:18.785Z,4.95
2019-04-22T10:06:44.329Z,8.13
2019-04-22T10:11:56.414Z,6.65
2019-04-22T10:14:33.787Z,7.45
2019-04-22T10:17:04.703Z,11.60
2019-04-22T10:19:30.042Z,5.67
2019-04-22T10:22:04.536Z,10.28
2019-04-22T10:24:33.047Z,2.98
2019-04-22T10:27:01.740Z,5.15
2019-04-22T10:29:41.662Z,5.03
2019-04-22T10:32:06.692Z,3.65
2019-04-22T10:34:26.987Z,6.50
2019-04-22T10:36:50.977Z,4.05
2019-04-22T10:39:18.308Z,4.35
2019-04-22T10:41:48.670Z,3.42
2019-04-22T10:44:19.164Z,3.70
2019-04-22T10:46:49.777Z,4.30
2019-04-22T10:49:20.295Z,4.90
2019-04-22T10:51:51.047Z,2.83
2019-04-22T10:54:20.642Z,5.20
2019-04-22T10:56:50.831Z,2.62
2019-04-22T10:59:20.692Z,4.40
2019-04-22T11:01:50.631Z,2.83
2019-04-22T11:04:21.524Z,3.27
2019-04-22T11:06:56.370Z,3.22
2019-04-22T11:09:23.885Z,2.37
2019-04-22T11:12:01.683Z,3.02
2019-04-22T11:14:24.574Z,4.20
2019-04-22T11:16:55.305Z,2.87
2019-04-22T11:19:25.703Z,3.10
2019-04-22T11:22:05.043Z,4.97
2019-04-22T11:24:46.645Z,4.17
2019-04-22T11:27:16.956Z,4.37
2019-04-22T11:29:47.682Z,4.30
2019-04-22T11:32:18.180Z,4.45
2019-04-22T11:34:49.016Z,4.28
2019-04-22T11:37:20.693Z,2.42
2019-04-22T11:40:02.135Z,3.98
2019-04-22T11:42:22.259Z,2.33
2019-04-22T11:44:53.068Z,2.25
2019-04-22T11:47:23.387Z,3.10
2019-04-22T11:49:54.358Z,2.83
2019-04-22T11:52:24.683Z,4.28
2019-04-22T11:54:54.868Z,3.45
2019-04-22T11:57:25.331Z,3.45
2019-04-22T11:59:56.596Z,2.90
2019-04-22T12:02:29.168Z,3.00
2019-04-22T12:04:58.804Z,4.62
2019-04-22T12:07:31.753Z,3.08
2019-04-22T12:10:13.262Z,4.40
2019-04-22T12:12:31.998Z,3.25
2019-04-22T12:15:20.928Z,3.10
2019-04-22T12:17:50.998Z,3.17
2019-04-22T12:20:21.764Z,6.42
2019-04-22T12:22:53.303Z,4.25
2019-04-22T12:25:34.739Z,2.47
2019-04-22T12:27:55.207Z,3.20
2019-04-22T12:30:25.601Z,2.58
2019-04-22T12:32:55.282Z,3.67
2019-04-22T12:35:26.251Z,2.70
2019-04-22T12:38:01.463Z,3.95
2019-04-22T12:40:39.447Z,2.70
2019-04-22T12:42:59.472Z,3.22
2019-04-22T12:45:30.058Z,2.37
2019-04-22T12:48:00.108Z,2.33
2019-04-22T12:50:33.727Z,3.67
2019-04-22T12:53:06.502Z,5.22
2019-04-22T12:55:32.370Z,2.17
2019-04-22T12:58:02.817Z,2.72
2019-04-22T13:00:34.328Z,4.05
2019-04-22T13:03:05.117Z,4.28
2019-04-22T13:05:35.307Z,2.60
2019-04-22T13:08:05.658Z,3.02
2019-04-22T13:10:47.283Z,4.03
2019-04-22T13:13:07.117Z,4.90
2019-04-22T13:15:37.021Z,2.30
2019-04-22T13:18:17.325Z,2.65
2019-04-22T13:20:38.645Z,4.12
2019-04-22T13:23:09.404Z,3.17
2019-04-22T13:25:39.082Z,2.27
2019-04-22T13:28:09.346Z,5.37
2019-04-22T13:30:38.876Z,2.92
2019-04-22T13:33:08.327Z,2.60
2019-04-22T13:35:37.720Z,4.75
2019-04-22T13:38:08.948Z,3.75
2019-04-22T13:40:39.116Z,5.15
2019-04-22T13:43:09.348Z,2.45
2019-04-22T13:45:40.630Z,2.45
2019-04-22T13:48:29.577Z,2.15
2019-04-22T13:51:33.955Z,3.50
2019-04-22T13:54:29.538Z,6.65
2019-04-22T13:56:28.373Z,3.95
2019-04-22T13:58:48.426Z,2.65
2019-04-22T14:01:07.184Z,1.90
2019-04-22T14:03:56.629Z,2.42
2019-04-22T14:06:26.918Z,3.58
2019-04-22T14:08:56.423Z,3.25
2019-04-22T14:11:34.796Z,2.92
2019-04-22T14:13:56.974Z,2.02
2019-04-22T14:16:27.003Z,4.35
2019-04-22T14:18:58.110Z,5.20
2019-04-22T14:21:27.832Z,2.62
2019-04-22T14:23:58.517Z,2.62
2019-04-22T14:26:42.432Z,2.20
2019-04-22T14:28:59.947Z,2.62
2019-04-22T14:31:30.747Z,3.55
2019-04-22T14:34:04.981Z,2.58
2019-04-22T14:36:33.037Z,3.80
2019-04-22T14:39:05.985Z,2.20
2019-04-22T14:41:46.388Z,2.37
2019-04-22T14:47:09.249Z,2.80
2019-04-22T14:49:35.475Z,3.80
2019-04-22T14:52:07.997Z,2.60
2019-04-22T14:54:28.336Z,2.83
2019-04-22T14:56:42.408Z,2.90
2019-04-22T14:59:13.279Z,1.98
2019-04-22T15:01:43.505Z,2.00
2019-04-22T15:04:13.394Z,2.55
2019-04-22T15:06:47.014Z,2.95
2019-04-22T15:09:16.242Z,2.17
2019-04-22T15:11:55.794Z,2.52
2019-04-22T15:14:17.231Z,2.10
2019-04-22T15:17:06.908Z,3.10
2019-04-22T15:19:38.161Z,2.75
2019-04-22T15:22:08.488Z,2.60
2019-04-22T15:24:38.776Z,5.00
2019-04-22T15:27:08.737Z,3.12
2019-04-22T15:29:39.056Z,2.58
2019-04-22T15:32:29.363Z,3.20
2019-04-22T15:34:59.589Z,10.20
2019-04-22T15:37:31.098Z,3.08
2019-04-22T15:40:00.719Z,4.72
2019-04-22T15:42:35.576Z,2.80
2019-04-22T15:45:02.574Z,3.08
2019-04-22T15:47:34.779Z,2.85
2019-04-22T15:50:06.119Z,7.80
2019-04-22T15:52:41.725Z,3.25
2019-04-22T15:55:08.933Z,2.92
2019-04-22T15:57:39.828Z,4.20
2019-04-22T16:00:21.150Z,3.02
2019-04-22T16:02:41.501Z,5.85
2019-04-22T16:05:30.410Z,3.90
2019-04-22T16:08:01.321Z,2.37
2019-04-22T16:10:30.926Z,4.03
2019-04-22T16:13:07.524Z,3.80
2019-04-22T16:15:31.425Z,3.30
2019-04-22T16:18:03.333Z,6.08
2019-04-22T16:20:32.289Z,3.12
2019-04-22T16:23:20.837Z,3.35
2019-04-22T16:25:57.044Z,4.90
2019-04-22T16:28:29.150Z,2.98
2019-04-22T16:30:59.659Z,3.30
2019-04-22T16:33:29.441Z,5.08
2019-04-22T16:35:58.962Z,2.98
2019-04-22T16:38:28.868Z,4.12
2019-04-22T16:40:58.936Z,3.30
2019-04-22T16:43:28.785Z,4.05
2019-04-22T16:45:58.475Z,3.87
2019-04-22T16:48:29.546Z,3.40
2019-04-22T16:51:00.188Z,4.00
2019-04-22T16:53:31.386Z,4.30
2019-04-22T16:56:00.852Z,4.65
2019-04-22T16:58:30.514Z,4.83
2019-04-22T17:01:00.672Z,3.95
2019-04-22T17:03:48.819Z,3.02
2019-04-22T17:06:21.461Z,4.80
2019-04-22T17:08:51.008Z,6.60
2019-04-22T17:11:20.403Z,5.20
2019-04-22T17:13:50.212Z,3.65
2019-04-22T17:16:20.225Z,3.00
2019-04-22T17:18:50.113Z,5.85
2019-04-22T17:21:19.823Z,3.37
2019-04-22T17:23:49.883Z,3.15
2019-04-22T17:26:20.735Z,3.15
2019-04-22T17:28:51.309Z,2.98
2019-04-22T17:31:22.819Z,3.58
2019-04-22T17:33:53.004Z,2.70
2019-04-22T17:36:24.231Z,3.00
2019-04-22T17:39:07.032Z,3.45
2019-04-22T17:41:41.838Z,4.00
2019-04-22T17:44:25.094Z,2.67
2019-04-22T17:46:56.332Z,2.62
2019-04-22T17:49:45.644Z,4.70
2019-04-22T17:52:21.573Z,3.72
2019-04-22T17:54:50.340Z,5.50
2019-04-22T17:57:22.491Z,6.53
2019-04-22T17:59:53.465Z,3.90
2019-04-22T18:02:22.567Z,5.85
2019-04-22T18:04:45.995Z,5.42
2019-04-22T18:10:27.511Z,5.85
2019-04-22T18:12:52.761Z,6.15
2019-04-22T18:15:29.403Z,8.53
2019-04-22T18:17:59.268Z,8.45
2019-04-22T18:20:17.744Z,5.28
2019-04-22T18:22:41.816Z,4.78
2019-04-22T18:25:15.299Z,5.90
2019-04-22T18:28:02.078Z,8.08
2019-04-22T18:30:21.915Z,5.08
2019-04-22T18:33:00.681Z,6.45
2019-04-22T18:35:30.877Z,8.75
2019-04-22T18:38:10.987Z,5.78
2019-04-22T18:40:37.342Z,7.53
2019-04-22T18:43:17.175Z,6.17
2019-04-22T18:48:05.269Z,6.87
2019-04-22T18:50:53.620Z,3.98
2019-04-22T18:53:38.785Z,8.45
2019-04-22T18:56:01.706Z,7.85
2019-04-22T18:58:31.301Z,4.47
2019-04-22T19:00:52.512Z,7.40
2019-04-22T19:03:26.144Z,5.17
2019-04-22T19:06:25.930Z,5.15
2019-04-22T19:08:43.045Z,4.28
2019-04-22T19:16:36.000Z,5.62
2019-04-22T19:21:35.525Z,7.25
2019-04-22T19:24:04.371Z,6.28
2019-04-22T19:29:08.047Z,6.00
2019-04-22T19:31:40.761Z,8.43
2019-04-22T19:34:09.351Z,8.33
2019-04-22T19:36:46.785Z,7.53
2019-04-22T19:39:13.127Z,4.83
2019-04-22T19:41:48.899Z,8.60
2019-04-22T19:44:20.138Z,7.95
2019-04-22T19:47:10.679Z,7.58
2019-04-22T19:49:24.603Z,6.20
2019-04-22T19:51:57.283Z,6.60
2019-04-22T19:54:17.435Z,4.15
2019-04-22T19:56:45.372Z,11.90
2019-04-22T19:59:20.860Z,8.68
2019-04-22T20:02:09.496Z,8.15
2019-04-22T20:04:52.934Z,7.78
2019-04-22T20:07:41.408Z,5.62
2019-04-22T20:10:18.964Z,6.70
2019-04-22T20:12:42.772Z,6.10
2019-04-22T20:15:18.482Z,6.35
2019-04-22T20:18:19.297Z,4.50
2019-04-22T20:20:27.476Z,5.92
2019-04-22T20:22:52.391Z,4.75
2019-04-22T20:25:16.748Z,5.80
2019-04-22T20:28:01.368Z,4.90
2019-04-22T20:30:43.257Z,10.20
2019-04-22T20:32:58.950Z,4.87
2019-04-22T20:35:38.700Z,3.98
2019-04-22T20:38:12.135Z,4.62
2019-04-22T20:40:39.519Z,3.62
2019-04-22T20:43:15.021Z,4.17
2019-04-22T20:45:39.620Z,8.25
2019-04-22T20:48:05.117Z,7.50
2019-04-22T20:50:48.193Z,6.53
2019-04-22T20:53:20.014Z,6.28
2019-04-22T20:55:48.300Z,7.92
2019-04-22T20:58:18.058Z,4.50
2019-04-22T21:00:40.279Z,5.20
2019-04-22T21:03:10.405Z,6.60
2019-04-22T21:05:44.465Z,8.48
2019-04-22T21:08:24.477Z,5.33
2019-04-22T21:10:45.396Z,4.10
2019-04-22T21:13:20.599Z,3.95
2019-04-22T21:16:15.256Z,5.17
2019-04-22T21:18:39.414Z,4.25
2019-04-22T21:21:20.260Z,8.13
2019-04-22T21:23:42.182Z,6.30
2019-04-22T21:26:21.367Z,6.75
2019-04-22T21:28:49.027Z,4.92
2019-04-22T21:31:23.491Z,5.62
2019-04-22T21:33:51.932Z,6.20
2019-04-22T21:36:41.583Z,6.17
2019-04-22T21:39:12.563Z,6.87
2019-04-22T21:41:43.216Z,3.95
2019-04-22T21:44:14.406Z,4.37
2019-04-22T21:46:47.877Z,4.25
2019-04-22T21:49:21.686Z,6.58
2019-04-22T21:51:54.009Z,6.75
2019-04-22T21:54:28.273Z,4.50
2019-04-22T21:57:08.977Z,8.08
2019-04-22T21:59:25.267Z,8.78
2019-04-22T22:02:04.424Z,6.10
2019-04-22T22:04:24.798Z,10.43
2019-04-22T22:06:53.073Z,4.95
2019-04-22T22:09:31.545Z,5.20
2019-04-22T22:11:59.316Z,5.05
2019-04-22T22:14:32.214Z,5.55
2019-04-22T22:16:58.791Z,4.28
2019-04-22T22:19:39.688Z,5.92
2019-04-22T22:22:26.691Z,5.58
2019-04-22T22:24:38.589Z,4.12
2019-04-22T22:27:12.733Z,3.58
2019-04-22T22:30:06.694Z,4.70
2019-04-22T22:32:16.517Z,5.60
2019-04-22T22:34:45.882Z,4.97
2019-04-22T22:37:06.467Z,5.20
2019-04-22T22:39:42.007Z,3.98
2019-04-22T22:41:57.665Z,4.20
2019-04-22T22:44:33.333Z,4.70
2019-04-22T22:47:16.299Z,4.05
2019-04-22T22:49:53.210Z,3.98
2019-04-22T22:54:54.146Z,4.30
2019-04-22T22:57:29.006Z,4.87
2019-04-22T22:59:55.159Z,5.22
2019-04-22T23:02:27.143Z,3.30
2019-04-22T23:04:59.506Z,7.15
2019-04-22T23:07:47.574Z,5.12
2019-04-22T23:10:01.982Z,3.95
2019-04-22T23:12:44.043Z,3.37
2019-04-22T23:15:02.759Z,2.77
2019-04-22T23:17:16.932Z,8.05
2019-04-22T23:19:48.587Z,5.62
2019-04-22T23:22:23.420Z,3.30
2019-04-22T23:25:07.750Z,3.22
2019-04-22T23:27:44.545Z,4.05
2019-04-22T23:30:09.485Z,3.87
2019-04-22T23:32:39.938Z,7.95
2019-04-22T23:35:32.238Z,5.17
2019-04-22T23:37:57.284Z,4.90
2019-04-22T23:43:09.170Z,3.40
2019-04-22T23:45:43.466Z,3.60
2019-04-22T23:48:03.400Z,2.95
2019-04-22T23:50:39.455Z,4.65
2019-04-22T23:53:45.083Z,4.85
2019-04-22T23:56:00.266Z,3.12
2019-04-22T23:58:50.584Z,4.30
